sensor_id;sensor_type;location;lat;lon;timestamp;P1;durP1;ratioP1;P2;durP2;ratioP2
40993;SDS011;26722;43.212;27.932;2023-03-01T00:01:21;9.32;;;5.40;;
40993;SDS011;26722;43.212;27.932;2023-03-01T00:03:49;7.75;;;4.80;;
40993;SDS011;26722;43.212;27.932;2023-03-01T00:06:15;7.22;;;4.35;;
40993;SDS011;26722;43.212;27.932;2023-03-01T00:08:42;7.90;;;4.65;;
40993;SDS011;26722;43.212;27.932;2023-03-01T00:11:09;7.70;;;4.65;;
40993;SDS011;26722;43.212;27.932;2023-03-01T00:13:37;7.65;;;4.00;;
40993;SDS011;26722;43.212;27.932;2023-03-01T00:16:04;8.95;;;4.18;;
40993;SDS011;26722;43.212;27.932;2023-03-01T00:18:31;9.45;;;4.85;;
40993;SDS011;26722;43.212;27.932;2023-03-01T00:20:57;8.68;;;4.93;;
40993;SDS011;26722;43.212;27.932;2023-03-01T00:23:23;9.40;;;5.10;;
40993;SDS011;26722;43.212;27.932;2023-03-01T00:25:49;10.50;;;5.60;;
40993;SDS011;26722;43.212;27.932;2023-03-01T00:28:15;10.13;;;5.75;;
40993;SDS011;26722;43.212;27.932;2023-03-01T00:30:41;9.48;;;5.47;;
40993;SDS011;26722;43.212;27.932;2023-03-01T00:33:06;10.60;;;6.00;;
40993;SDS011;26722;43.212;27.932;2023-03-01T00:35:32;10.65;;;6.57;;
40993;SDS011;26722;43.212;27.932;2023-03-01T00:37:58;12.05;;;6.18;;
40993;SDS011;26722;43.212;27.932;2023-03-01T00:40:24;11.85;;;5.47;;
40993;SDS011;26722;43.212;27.932;2023-03-01T00:42:50;11.30;;;5.90;;
40993;SDS011;26722;43.212;27.932;2023-03-01T00:45:15;11.27;;;6.28;;
40993;SDS011;26722;43.212;27.932;2023-03-01T00:47:41;11.52;;;6.07;;
40993;SDS011;26722;43.212;27.932;2023-03-01T00:50:07;11.00;;;5.43;;
40993;SDS011;26722;43.212;27.932;2023-03-01T00:52:33;8.32;;;4.80;;
40993;SDS011;26722;43.212;27.932;2023-03-01T00:54:58;8.75;;;4.32;;
40993;SDS011;26722;43.212;27.932;2023-03-01T00:57:24;7.60;;;4.07;;
40993;SDS011;26722;43.212;27.932;2023-03-01T00:59:49;10.68;;;4.25;;
40993;SDS011;26722;43.212;27.932;2023-03-01T01:02:15;8.85;;;4.22;;
40993;SDS011;26722;43.212;27.932;2023-03-01T01:04:40;8.35;;;4.93;;
40993;SDS011;26722;43.212;27.932;2023-03-01T01:07:06;7.50;;;4.05;;
40993;SDS011;26722;43.212;27.932;2023-03-01T01:09:31;7.22;;;4.43;;
40993;SDS011;26722;43.212;27.932;2023-03-01T01:11:57;7.60;;;4.03;;
40993;SDS011;26722;43.212;27.932;2023-03-01T01:14:22;7.25;;;4.32;;
40993;SDS011;26722;43.212;27.932;2023-03-01T01:16:48;6.78;;;3.97;;
40993;SDS011;26722;43.212;27.932;2023-03-01T01:19:13;8.95;;;4.93;;
40993;SDS011;26722;43.212;27.932;2023-03-01T01:21:40;9.55;;;4.93;;
40993;SDS011;26722;43.212;27.932;2023-03-01T01:24:08;9.75;;;5.72;;
40993;SDS011;26722;43.212;27.932;2023-03-01T01:26:34;9.57;;;4.70;;
40993;SDS011;26722;43.212;27.932;2023-03-01T01:29:00;12.75;;;5.80;;
40993;SDS011;26722;43.212;27.932;2023-03-01T01:31:27;11.35;;;6.00;;
40993;SDS011;26722;43.212;27.932;2023-03-01T01:33:53;12.65;;;6.32;;
40993;SDS011;26722;43.212;27.932;2023-03-01T01:36:20;7.95;;;4.20;;
40993;SDS011;26722;43.212;27.932;2023-03-01T01:38:46;14.20;;;6.80;;
40993;SDS011;26722;43.212;27.932;2023-03-01T01:41:12;16.48;;;6.82;;
40993;SDS011;26722;43.212;27.932;2023-03-01T01:43:40;14.15;;;6.82;;
40993;SDS011;26722;43.212;27.932;2023-03-01T01:46:14;13.88;;;7.30;;
40993;SDS011;26722;43.212;27.932;2023-03-01T01:48:47;16.52;;;8.05;;
40993;SDS011;26722;43.212;27.932;2023-03-01T01:51:27;13.48;;;7.03;;
40993;SDS011;26722;43.212;27.932;2023-03-01T01:54:03;13.77;;;7.45;;
40993;SDS011;26722;43.212;27.932;2023-03-01T01:56:34;18.58;;;8.43;;
40993;SDS011;26722;43.212;27.932;2023-03-01T01:59:04;17.85;;;8.73;;
40993;SDS011;26722;43.212;27.932;2023-03-01T02:01:30;15.85;;;8.23;;
40993;SDS011;26722;43.212;27.932;2023-03-01T02:03:55;15.60;;;9.13;;
40993;SDS011;26722;43.212;27.932;2023-03-01T02:06:22;18.33;;;8.98;;
40993;SDS011;26722;43.212;27.932;2023-03-01T02:08:59;18.80;;;8.90;;
40993;SDS011;26722;43.212;27.932;2023-03-01T02:11:30;14.95;;;7.97;;
40993;SDS011;26722;43.212;27.932;2023-03-01T02:13:57;18.70;;;9.10;;
40993;SDS011;26722;43.212;27.932;2023-03-01T02:16:23;19.45;;;9.68;;
40993;SDS011;26722;43.212;27.932;2023-03-01T02:18:50;17.67;;;8.85;;
40993;SDS011;26722;43.212;27.932;2023-03-01T02:23:55;18.60;;;9.45;;
40993;SDS011;26722;43.212;27.932;2023-03-01T02:29:02;17.52;;;9.85;;
40993;SDS011;26722;43.212;27.932;2023-03-01T02:31:27;24.35;;;10.68;;
40993;SDS011;26722;43.212;27.932;2023-03-01T02:34:18;20.13;;;9.77;;
40993;SDS011;26722;43.212;27.932;2023-03-01T02:39:21;20.00;;;10.93;;
40993;SDS011;26722;43.212;27.932;2023-03-01T02:41:54;20.73;;;10.77;;
40993;SDS011;26722;43.212;27.932;2023-03-01T02:44:21;19.25;;;10.20;;
40993;SDS011;26722;43.212;27.932;2023-03-01T02:46:48;19.05;;;10.68;;
40993;SDS011;26722;43.212;27.932;2023-03-01T02:49:29;20.42;;;10.95;;
40993;SDS011;26722;43.212;27.932;2023-03-01T02:52:03;21.70;;;11.35;;
40993;SDS011;26722;43.212;27.932;2023-03-01T02:57:10;16.63;;;9.10;;
40993;SDS011;26722;43.212;27.932;2023-03-01T02:59:36;21.30;;;12.07;;
40993;SDS011;26722;43.212;27.932;2023-03-01T03:02:29;25.35;;;11.93;;
40993;SDS011;26722;43.212;27.932;2023-03-01T03:05:12;22.55;;;11.98;;
40993;SDS011;26722;43.212;27.932;2023-03-01T03:07:43;22.30;;;11.77;;
40993;SDS011;26722;43.212;27.932;2023-03-01T03:10:12;22.50;;;11.77;;
40993;SDS011;26722;43.212;27.932;2023-03-01T03:12:44;26.30;;;13.98;;
40993;SDS011;26722;43.212;27.932;2023-03-01T03:15:14;24.80;;;12.40;;
40993;SDS011;26722;43.212;27.932;2023-03-01T03:17:40;26.52;;;13.40;;
40993;SDS011;26722;43.212;27.932;2023-03-01T03:20:07;23.63;;;11.88;;
40993;SDS011;26722;43.212;27.932;2023-03-01T03:22:37;22.38;;;12.35;;
40993;SDS011;26722;43.212;27.932;2023-03-01T03:25:04;28.40;;;13.40;;
40993;SDS011;26722;43.212;27.932;2023-03-01T03:27:30;22.92;;;12.98;;
40993;SDS011;26722;43.212;27.932;2023-03-01T03:29:57;25.05;;;13.30;;
40993;SDS011;26722;43.212;27.932;2023-03-01T03:32:22;24.00;;;14.02;;
40993;SDS011;26722;43.212;27.932;2023-03-01T03:34:47;28.55;;;13.73;;
40993;SDS011;26722;43.212;27.932;2023-03-01T03:37:14;25.35;;;13.45;;
40993;SDS011;26722;43.212;27.932;2023-03-01T03:39:59;29.13;;;14.35;;
40993;SDS011;26722;43.212;27.932;2023-03-01T03:42:25;28.00;;;13.57;;
40993;SDS011;26722;43.212;27.932;2023-03-01T03:44:50;25.35;;;14.00;;
40993;SDS011;26722;43.212;27.932;2023-03-01T03:47:15;28.30;;;13.82;;
40993;SDS011;26722;43.212;27.932;2023-03-01T03:49:41;31.95;;;14.27;;
40993;SDS011;26722;43.212;27.932;2023-03-01T03:52:06;31.50;;;15.02;;
40993;SDS011;26722;43.212;27.932;2023-03-01T03:54:39;28.90;;;15.45;;
40993;SDS011;26722;43.212;27.932;2023-03-01T03:57:05;31.35;;;14.98;;
40993;SDS011;26722;43.212;27.932;2023-03-01T03:59:31;28.30;;;15.52;;
40993;SDS011;26722;43.212;27.932;2023-03-01T04:01:56;27.05;;;12.10;;
40993;SDS011;26722;43.212;27.932;2023-03-01T04:04:22;26.73;;;14.02;;
40993;SDS011;26722;43.212;27.932;2023-03-01T04:06:47;33.78;;;16.10;;
40993;SDS011;26722;43.212;27.932;2023-03-01T04:09:13;27.42;;;14.77;;
40993;SDS011;26722;43.212;27.932;2023-03-01T04:11:39;30.27;;;13.75;;
40993;SDS011;26722;43.212;27.932;2023-03-01T04:14:04;34.38;;;16.60;;
40993;SDS011;26722;43.212;27.932;2023-03-01T04:16:29;30.98;;;14.45;;
40993;SDS011;26722;43.212;27.932;2023-03-01T04:18:55;31.65;;;16.55;;
40993;SDS011;26722;43.212;27.932;2023-03-01T04:21:21;32.30;;;16.08;;
40993;SDS011;26722;43.212;27.932;2023-03-01T04:23:47;39.17;;;16.30;;
40993;SDS011;26722;43.212;27.932;2023-03-01T04:26:13;30.77;;;14.98;;
40993;SDS011;26722;43.212;27.932;2023-03-01T04:28:39;32.85;;;15.68;;
40993;SDS011;26722;43.212;27.932;2023-03-01T04:31:11;30.70;;;14.35;;
40993;SDS011;26722;43.212;27.932;2023-03-01T04:36:11;31.23;;;15.63;;
40993;SDS011;26722;43.212;27.932;2023-03-01T04:38:38;27.13;;;15.20;;
40993;SDS011;26722;43.212;27.932;2023-03-01T04:41:07;36.13;;;17.05;;
40993;SDS011;26722;43.212;27.932;2023-03-01T04:43:34;31.02;;;16.15;;
40993;SDS011;26722;43.212;27.932;2023-03-01T04:46:04;28.60;;;14.27;;
40993;SDS011;26722;43.212;27.932;2023-03-01T04:48:35;29.23;;;15.63;;
40993;SDS011;26722;43.212;27.932;2023-03-01T04:51:02;34.22;;;16.52;;
40993;SDS011;26722;43.212;27.932;2023-03-01T04:53:28;29.92;;;16.25;;
40993;SDS011;26722;43.212;27.932;2023-03-01T04:55:55;27.08;;;14.75;;
40993;SDS011;26722;43.212;27.932;2023-03-01T04:58:23;26.50;;;14.50;;
40993;SDS011;26722;43.212;27.932;2023-03-01T05:00:50;27.85;;;14.75;;
40993;SDS011;26722;43.212;27.932;2023-03-01T05:03:16;29.05;;;15.02;;
40993;SDS011;26722;43.212;27.932;2023-03-01T05:05:45;28.40;;;14.18;;
40993;SDS011;26722;43.212;27.932;2023-03-01T05:08:12;27.38;;;15.32;;
40993;SDS011;26722;43.212;27.932;2023-03-01T05:10:49;35.55;;;16.35;;
40993;SDS011;26722;43.212;27.932;2023-03-01T05:13:18;28.65;;;14.70;;
40993;SDS011;26722;43.212;27.932;2023-03-01T05:15:58;26.90;;;13.57;;
40993;SDS011;26722;43.212;27.932;2023-03-01T05:18:25;29.25;;;15.23;;
40993;SDS011;26722;43.212;27.932;2023-03-01T05:20:53;30.38;;;15.00;;
40993;SDS011;26722;43.212;27.932;2023-03-01T05:23:21;27.40;;;14.10;;
40993;SDS011;26722;43.212;27.932;2023-03-01T05:25:47;31.17;;;14.98;;
40993;SDS011;26722;43.212;27.932;2023-03-01T05:28:14;26.20;;;14.20;;
40993;SDS011;26722;43.212;27.932;2023-03-01T05:30:39;26.70;;;13.90;;
40993;SDS011;26722;43.212;27.932;2023-03-01T05:33:05;27.70;;;14.55;;
40993;SDS011;26722;43.212;27.932;2023-03-01T05:35:38;27.15;;;14.23;;
40993;SDS011;26722;43.212;27.932;2023-03-01T05:38:07;28.58;;;15.60;;
40993;SDS011;26722;43.212;27.932;2023-03-01T05:40:34;31.55;;;15.57;;
40993;SDS011;26722;43.212;27.932;2023-03-01T05:43:00;31.27;;;14.50;;
40993;SDS011;26722;43.212;27.932;2023-03-01T05:45:26;29.02;;;15.15;;
40993;SDS011;26722;43.212;27.932;2023-03-01T05:47:52;28.58;;;14.85;;
40993;SDS011;26722;43.212;27.932;2023-03-01T05:50:23;33.53;;;15.77;;
40993;SDS011;26722;43.212;27.932;2023-03-01T05:52:52;29.48;;;13.90;;
40993;SDS011;26722;43.212;27.932;2023-03-01T05:55:23;27.00;;;14.48;;
40993;SDS011;26722;43.212;27.932;2023-03-01T05:57:49;26.05;;;12.50;;
40993;SDS011;26722;43.212;27.932;2023-03-01T06:00:15;26.30;;;14.98;;
40993;SDS011;26722;43.212;27.932;2023-03-01T06:02:43;25.65;;;14.82;;
40993;SDS011;26722;43.212;27.932;2023-03-01T06:05:09;25.45;;;13.65;;
40993;SDS011;26722;43.212;27.932;2023-03-01T06:07:36;25.40;;;13.48;;
40993;SDS011;26722;43.212;27.932;2023-03-01T06:10:02;29.17;;;14.32;;
40993;SDS011;26722;43.212;27.932;2023-03-01T06:12:32;26.02;;;13.63;;
40993;SDS011;26722;43.212;27.932;2023-03-01T06:14:59;27.45;;;14.30;;
40993;SDS011;26722;43.212;27.932;2023-03-01T06:17:25;28.25;;;14.10;;
40993;SDS011;26722;43.212;27.932;2023-03-01T06:19:53;27.85;;;13.25;;
40993;SDS011;26722;43.212;27.932;2023-03-01T06:22:19;23.13;;;12.50;;
40993;SDS011;26722;43.212;27.932;2023-03-01T06:24:44;23.48;;;13.63;;
40993;SDS011;26722;43.212;27.932;2023-03-01T06:27:10;29.92;;;14.02;;
40993;SDS011;26722;43.212;27.932;2023-03-01T06:29:35;29.33;;;13.57;;
40993;SDS011;26722;43.212;27.932;2023-03-01T06:32:01;28.45;;;14.68;;
40993;SDS011;26722;43.212;27.932;2023-03-01T06:34:28;27.52;;;14.15;;
40993;SDS011;26722;43.212;27.932;2023-03-01T06:36:53;26.25;;;12.80;;
40993;SDS011;26722;43.212;27.932;2023-03-01T06:39:19;24.02;;;12.93;;
40993;SDS011;26722;43.212;27.932;2023-03-01T06:41:44;28.75;;;14.18;;
40993;SDS011;26722;43.212;27.932;2023-03-01T06:44:10;28.10;;;14.68;;
40993;SDS011;26722;43.212;27.932;2023-03-01T06:46:35;26.20;;;14.13;;
40993;SDS011;26722;43.212;27.932;2023-03-01T06:49:01;22.60;;;11.30;;
40993;SDS011;26722;43.212;27.932;2023-03-01T06:51:29;25.17;;;11.45;;
40993;SDS011;26722;43.212;27.932;2023-03-01T06:53:55;26.13;;;13.30;;
40993;SDS011;26722;43.212;27.932;2023-03-01T06:56:20;22.85;;;10.70;;
40993;SDS011;26722;43.212;27.932;2023-03-01T06:58:45;26.33;;;12.82;;
40993;SDS011;26722;43.212;27.932;2023-03-01T07:01:11;26.90;;;13.63;;
40993;SDS011;26722;43.212;27.932;2023-03-01T07:03:36;19.23;;;10.00;;
40993;SDS011;26722;43.212;27.932;2023-03-01T07:06:02;26.98;;;13.40;;
40993;SDS011;26722;43.212;27.932;2023-03-01T07:08:27;30.52;;;14.55;;
40993;SDS011;26722;43.212;27.932;2023-03-01T07:10:56;30.05;;;15.63;;
40993;SDS011;26722;43.212;27.932;2023-03-01T07:13:22;29.40;;;15.07;;
40993;SDS011;26722;43.212;27.932;2023-03-01T07:15:48;34.53;;;15.02;;
40993;SDS011;26722;43.212;27.932;2023-03-01T07:18:13;27.17;;;15.10;;
40993;SDS011;26722;43.212;27.932;2023-03-01T07:20:39;29.30;;;15.45;;
40993;SDS011;26722;43.212;27.932;2023-03-01T07:23:05;31.02;;;14.07;;
40993;SDS011;26722;43.212;27.932;2023-03-01T07:25:31;28.50;;;15.88;;
40993;SDS011;26722;43.212;27.932;2023-03-01T07:27:57;28.15;;;15.43;;
40993;SDS011;26722;43.212;27.932;2023-03-01T07:30:23;33.95;;;14.43;;
40993;SDS011;26722;43.212;27.932;2023-03-01T07:32:51;33.33;;;15.93;;
40993;SDS011;26722;43.212;27.932;2023-03-01T07:35:17;28.25;;;14.93;;
40993;SDS011;26722;43.212;27.932;2023-03-01T07:37:42;29.05;;;15.75;;
40993;SDS011;26722;43.212;27.932;2023-03-01T07:40:08;27.80;;;13.05;;
40993;SDS011;26722;43.212;27.932;2023-03-01T07:42:35;30.02;;;16.08;;
40993;SDS011;26722;43.212;27.932;2023-03-01T07:45:00;29.02;;;14.25;;
40993;SDS011;26722;43.212;27.932;2023-03-01T07:47:25;25.88;;;12.25;;
40993;SDS011;26722;43.212;27.932;2023-03-01T07:49:51;23.65;;;11.75;;
40993;SDS011;26722;43.212;27.932;2023-03-01T07:52:16;24.08;;;13.50;;
40993;SDS011;26722;43.212;27.932;2023-03-01T07:54:42;22.83;;;11.15;;
40993;SDS011;26722;43.212;27.932;2023-03-01T07:57:09;29.08;;;14.00;;
40993;SDS011;26722;43.212;27.932;2023-03-01T07:59:35;27.52;;;13.88;;
40993;SDS011;26722;43.212;27.932;2023-03-01T08:02:00;24.00;;;11.70;;
40993;SDS011;26722;43.212;27.932;2023-03-01T08:04:26;34.03;;;15.45;;
40993;SDS011;26722;43.212;27.932;2023-03-01T08:06:52;24.02;;;13.25;;
40993;SDS011;26722;43.212;27.932;2023-03-01T08:09:18;21.63;;;11.32;;
40993;SDS011;26722;43.212;27.932;2023-03-01T08:11:43;20.73;;;12.63;;
40993;SDS011;26722;43.212;27.932;2023-03-01T08:14:09;29.73;;;13.52;;
40993;SDS011;26722;43.212;27.932;2023-03-01T08:16:35;23.00;;;12.45;;
40993;SDS011;26722;43.212;27.932;2023-03-01T08:19:08;25.95;;;12.60;;
40993;SDS011;26722;43.212;27.932;2023-03-01T08:21:35;22.33;;;11.88;;
40993;SDS011;26722;43.212;27.932;2023-03-01T08:24:01;21.05;;;11.48;;
40993;SDS011;26722;43.212;27.932;2023-03-01T08:26:27;22.38;;;12.25;;
40993;SDS011;26722;43.212;27.932;2023-03-01T08:28:53;21.15;;;11.82;;
40993;SDS011;26722;43.212;27.932;2023-03-01T08:31:25;20.52;;;12.63;;
40993;SDS011;26722;43.212;27.932;2023-03-01T08:33:53;24.77;;;12.40;;
40993;SDS011;26722;43.212;27.932;2023-03-01T08:36:22;20.17;;;11.25;;
40993;SDS011;26722;43.212;27.932;2023-03-01T08:38:49;21.48;;;12.35;;
40993;SDS011;26722;43.212;27.932;2023-03-01T08:41:14;21.73;;;12.38;;
40993;SDS011;26722;43.212;27.932;2023-03-01T08:43:40;19.23;;;12.95;;
40993;SDS011;26722;43.212;27.932;2023-03-01T08:46:05;20.98;;;11.02;;
40993;SDS011;26722;43.212;27.932;2023-03-01T08:48:31;18.75;;;12.20;;
40993;SDS011;26722;43.212;27.932;2023-03-01T08:50:56;19.15;;;11.45;;
40993;SDS011;26722;43.212;27.932;2023-03-01T08:53:22;19.40;;;12.20;;
40993;SDS011;26722;43.212;27.932;2023-03-01T08:55:48;19.88;;;11.02;;
40993;SDS011;26722;43.212;27.932;2023-03-01T08:58:13;16.38;;;11.07;;
40993;SDS011;26722;43.212;27.932;2023-03-01T09:00:38;17.17;;;10.25;;
40993;SDS011;26722;43.212;27.932;2023-03-01T09:03:05;20.17;;;12.10;;
40993;SDS011;26722;43.212;27.932;2023-03-01T09:05:31;20.70;;;12.95;;
40993;SDS011;26722;43.212;27.932;2023-03-01T09:07:57;23.48;;;13.27;;
40993;SDS011;26722;43.212;27.932;2023-03-01T09:10:23;20.70;;;12.77;;
40993;SDS011;26722;43.212;27.932;2023-03-01T09:12:48;23.92;;;15.20;;
40993;SDS011;26722;43.212;27.932;2023-03-01T09:15:14;27.75;;;16.00;;
40993;SDS011;26722;43.212;27.932;2023-03-01T09:17:40;25.95;;;13.55;;
40993;SDS011;26722;43.212;27.932;2023-03-01T09:20:05;28.70;;;16.15;;
40993;SDS011;26722;43.212;27.932;2023-03-01T09:22:33;29.20;;;16.88;;
40993;SDS011;26722;43.212;27.932;2023-03-01T09:24:59;30.35;;;16.80;;
40993;SDS011;26722;43.212;27.932;2023-03-01T09:27:25;38.83;;;17.92;;
40993;SDS011;26722;43.212;27.932;2023-03-01T09:29:50;34.75;;;17.75;;
40993;SDS011;26722;43.212;27.932;2023-03-01T09:32:16;30.95;;;17.10;;
40993;SDS011;26722;43.212;27.932;2023-03-01T09:34:41;31.67;;;16.73;;
40993;SDS011;26722;43.212;27.932;2023-03-01T09:37:26;31.48;;;17.67;;
40993;SDS011;26722;43.212;27.932;2023-03-01T09:39:52;36.83;;;18.33;;
40993;SDS011;26722;43.212;27.932;2023-03-01T09:42:17;37.28;;;19.17;;
40993;SDS011;26722;43.212;27.932;2023-03-01T09:47:18;33.55;;;17.63;;
40993;SDS011;26722;43.212;27.932;2023-03-01T09:49:57;34.42;;;16.45;;
40993;SDS011;26722;43.212;27.932;2023-03-01T09:55:25;32.58;;;15.68;;
40993;SDS011;26722;43.212;27.932;2023-03-01T10:06:55;27.98;;;12.23;;
40993;SDS011;26722;43.212;27.932;2023-03-01T10:09:35;27.85;;;11.02;;
40993;SDS011;26722;43.212;27.932;2023-03-01T10:12:04;27.50;;;12.65;;
40993;SDS011;26722;43.212;27.932;2023-03-01T10:14:36;32.55;;;13.98;;
40993;SDS011;26722;43.212;27.932;2023-03-01T10:20:22;24.55;;;10.65;;
40993;SDS011;26722;43.212;27.932;2023-03-01T10:22:50;25.73;;;12.70;;
40993;SDS011;26722;43.212;27.932;2023-03-01T10:25:27;24.02;;;11.35;;
40993;SDS011;26722;43.212;27.932;2023-03-01T10:28:09;26.30;;;13.13;;
40993;SDS011;26722;43.212;27.932;2023-03-01T10:30:57;19.98;;;10.60;;
40993;SDS011;26722;43.212;27.932;2023-03-01T10:33:25;22.17;;;10.80;;
40993;SDS011;26722;43.212;27.932;2023-03-01T10:35:54;19.25;;;11.07;;
40993;SDS011;26722;43.212;27.932;2023-03-01T10:38:20;22.55;;;11.00;;
40993;SDS011;26722;43.212;27.932;2023-03-01T10:40:50;23.20;;;11.20;;
40993;SDS011;26722;43.212;27.932;2023-03-01T10:43:16;20.63;;;11.80;;
40993;SDS011;26722;43.212;27.932;2023-03-01T10:45:42;21.70;;;12.20;;
40993;SDS011;26722;43.212;27.932;2023-03-01T10:50:38;20.25;;;10.98;;
40993;SDS011;26722;43.212;27.932;2023-03-01T10:53:10;23.15;;;12.25;;
40993;SDS011;26722;43.212;27.932;2023-03-01T10:55:46;26.23;;;11.20;;
40993;SDS011;26722;43.212;27.932;2023-03-01T11:03:30;24.00;;;11.55;;
40993;SDS011;26722;43.212;27.932;2023-03-01T11:08:44;32.20;;;12.43;;
40993;SDS011;26722;43.212;27.932;2023-03-01T11:14:36;24.90;;;13.13;;
40993;SDS011;26722;43.212;27.932;2023-03-01T11:16:47;30.15;;;11.95;;
40993;SDS011;26722;43.212;27.932;2023-03-01T11:19:22;22.75;;;12.20;;
40993;SDS011;26722;43.212;27.932;2023-03-01T11:24:29;21.38;;;12.05;;
40993;SDS011;26722;43.212;27.932;2023-03-01T11:26:59;22.13;;;12.13;;
40993;SDS011;26722;43.212;27.932;2023-03-01T11:32:08;21.23;;;10.63;;
40993;SDS011;26722;43.212;27.932;2023-03-01T11:34:38;22.88;;;11.68;;
40993;SDS011;26722;43.212;27.932;2023-03-01T11:40:13;17.10;;;10.05;;
40993;SDS011;26722;43.212;27.932;2023-03-01T11:42:50;16.65;;;9.00;;
40993;SDS011;26722;43.212;27.932;2023-03-01T11:45:24;16.40;;;9.30;;
40993;SDS011;26722;43.212;27.932;2023-03-01T11:48:07;15.15;;;8.38;;
40993;SDS011;26722;43.212;27.932;2023-03-01T11:50:50;16.20;;;8.73;;
40993;SDS011;26722;43.212;27.932;2023-03-01T11:53:23;15.30;;;9.23;;
40993;SDS011;26722;43.212;27.932;2023-03-01T11:55:55;16.42;;;8.68;;
40993;SDS011;26722;43.212;27.932;2023-03-01T12:08:04;15.50;;;9.75;;
40993;SDS011;26722;43.212;27.932;2023-03-01T12:11:15;17.90;;;9.38;;
40993;SDS011;26722;43.212;27.932;2023-03-01T12:19:19;22.45;;;10.23;;
40993;SDS011;26722;43.212;27.932;2023-03-01T12:22:20;17.70;;;10.20;;
40993;SDS011;26722;43.212;27.932;2023-03-01T12:33:22;13.23;;;7.03;;
40993;SDS011;26722;43.212;27.932;2023-03-01T12:44:24;17.85;;;9.40;;
40993;SDS011;26722;43.212;27.932;2023-03-01T12:52:47;14.38;;;8.20;;
40993;SDS011;26722;43.212;27.932;2023-03-01T12:58:17;15.20;;;8.20;;
40993;SDS011;26722;43.212;27.932;2023-03-01T13:06:12;12.68;;;7.30;;
40993;SDS011;26722;43.212;27.932;2023-03-01T13:11:18;12.45;;;7.00;;
40993;SDS011;26722;43.212;27.932;2023-03-01T13:13:45;12.05;;;7.25;;
40993;SDS011;26722;43.212;27.932;2023-03-01T13:19:15;12.55;;;6.80;;
40993;SDS011;26722;43.212;27.932;2023-03-01T13:21:43;10.00;;;6.63;;
40993;SDS011;26722;43.212;27.932;2023-03-01T13:29:54;12.38;;;7.20;;
40993;SDS011;26722;43.212;27.932;2023-03-01T13:34:54;14.68;;;7.15;;
40993;SDS011;26722;43.212;27.932;2023-03-01T13:37:28;17.00;;;8.00;;
40993;SDS011;26722;43.212;27.932;2023-03-01T13:39:59;15.48;;;7.43;;
40993;SDS011;26722;43.212;27.932;2023-03-01T13:42:48;12.93;;;6.85;;
40993;SDS011;26722;43.212;27.932;2023-03-01T13:47:43;18.15;;;7.63;;
40993;SDS011;26722;43.212;27.932;2023-03-01T13:50:18;15.75;;;7.65;;
40993;SDS011;26722;43.212;27.932;2023-03-01T13:52:48;17.98;;;7.53;;
40993;SDS011;26722;43.212;27.932;2023-03-01T13:55:21;18.67;;;7.88;;
40993;SDS011;26722;43.212;27.932;2023-03-01T13:57:52;24.33;;;7.40;;
40993;SDS011;26722;43.212;27.932;2023-03-01T14:00:27;14.50;;;7.90;;
40993;SDS011;26722;43.212;27.932;2023-03-01T14:03:08;14.63;;;7.30;;
40993;SDS011;26722;43.212;27.932;2023-03-01T14:05:44;13.50;;;7.88;;
40993;SDS011;26722;43.212;27.932;2023-03-01T14:08:24;15.50;;;8.43;;
40993;SDS011;26722;43.212;27.932;2023-03-01T14:19:16;14.70;;;9.13;;
40993;SDS011;26722;43.212;27.932;2023-03-01T14:21:46;20.77;;;9.63;;
40993;SDS011;26722;43.212;27.932;2023-03-01T14:24:20;16.50;;;9.98;;
40993;SDS011;26722;43.212;27.932;2023-03-01T14:26:47;21.60;;;9.88;;
40993;SDS011;26722;43.212;27.932;2023-03-01T14:32:26;15.48;;;8.80;;
40993;SDS011;26722;43.212;27.932;2023-03-01T14:34:54;19.05;;;10.52;;
40993;SDS011;26722;43.212;27.932;2023-03-01T14:40:00;20.27;;;10.63;;
40993;SDS011;26722;43.212;27.932;2023-03-01T14:42:34;18.52;;;8.38;;
40993;SDS011;26722;43.212;27.932;2023-03-01T14:45:01;17.10;;;8.20;;
40993;SDS011;26722;43.212;27.932;2023-03-01T14:47:32;17.77;;;8.77;;
40993;SDS011;26722;43.212;27.932;2023-03-01T14:52:42;18.60;;;8.40;;
40993;SDS011;26722;43.212;27.932;2023-03-01T14:55:19;20.50;;;9.18;;
40993;SDS011;26722;43.212;27.932;2023-03-01T14:57:48;19.23;;;8.05;;
40993;SDS011;26722;43.212;27.932;2023-03-01T15:00:19;17.42;;;7.80;;
40993;SDS011;26722;43.212;27.932;2023-03-01T15:02:51;14.90;;;8.15;;
40993;SDS011;26722;43.212;27.932;2023-03-01T15:07:56;14.40;;;8.23;;
40993;SDS011;26722;43.212;27.932;2023-03-01T15:10:25;17.85;;;8.50;;
40993;SDS011;26722;43.212;27.932;2023-03-01T15:12:55;17.40;;;8.27;;
40993;SDS011;26722;43.212;27.932;2023-03-01T15:17:53;19.02;;;8.90;;
40993;SDS011;26722;43.212;27.932;2023-03-01T15:20:22;22.55;;;9.27;;
40993;SDS011;26722;43.212;27.932;2023-03-01T15:22:51;23.15;;;9.98;;
40993;SDS011;26722;43.212;27.932;2023-03-01T15:25:21;17.42;;;9.07;;
40993;SDS011;26722;43.212;27.932;2023-03-01T15:27:50;26.75;;;9.75;;
40993;SDS011;26722;43.212;27.932;2023-03-01T15:30:25;18.17;;;9.77;;
40993;SDS011;26722;43.212;27.932;2023-03-01T15:35:54;16.98;;;9.20;;
40993;SDS011;26722;43.212;27.932;2023-03-01T15:38:28;18.73;;;9.32;;
40993;SDS011;26722;43.212;27.932;2023-03-01T15:44:47;19.10;;;9.48;;
40993;SDS011;26722;43.212;27.932;2023-03-01T15:46:56;22.33;;;9.70;;
40993;SDS011;26722;43.212;27.932;2023-03-01T15:49:38;19.05;;;8.95;;
40993;SDS011;26722;43.212;27.932;2023-03-01T15:52:05;14.45;;;8.90;;
40993;SDS011;26722;43.212;27.932;2023-03-01T15:54:38;17.85;;;9.45;;
40993;SDS011;26722;43.212;27.932;2023-03-01T15:57:08;20.05;;;10.35;;
40993;SDS011;26722;43.212;27.932;2023-03-01T15:59:39;16.75;;;9.65;;
40993;SDS011;26722;43.212;27.932;2023-03-01T16:02:10;18.20;;;10.05;;
40993;SDS011;26722;43.212;27.932;2023-03-01T16:04:40;20.70;;;9.50;;
40993;SDS011;26722;43.212;27.932;2023-03-01T16:07:05;17.05;;;9.77;;
40993;SDS011;26722;43.212;27.932;2023-03-01T16:09:30;20.77;;;10.30;;
40993;SDS011;26722;43.212;27.932;2023-03-01T16:11:56;20.52;;;10.93;;
40993;SDS011;26722;43.212;27.932;2023-03-01T16:14:22;19.67;;;10.90;;
40993;SDS011;26722;43.212;27.932;2023-03-01T16:16:47;19.95;;;11.38;;
40993;SDS011;26722;43.212;27.932;2023-03-01T16:19:13;23.20;;;11.95;;
40993;SDS011;26722;43.212;27.932;2023-03-01T16:21:40;21.77;;;11.30;;
40993;SDS011;26722;43.212;27.932;2023-03-01T16:24:07;24.70;;;11.38;;
40993;SDS011;26722;43.212;27.932;2023-03-01T16:26:33;26.13;;;12.07;;
40993;SDS011;26722;43.212;27.932;2023-03-01T16:28:59;17.23;;;10.73;;
40993;SDS011;26722;43.212;27.932;2023-03-01T16:31:25;22.88;;;10.48;;
40993;SDS011;26722;43.212;27.932;2023-03-01T16:33:57;20.60;;;11.70;;
40993;SDS011;26722;43.212;27.932;2023-03-01T16:36:24;20.48;;;10.98;;
40993;SDS011;26722;43.212;27.932;2023-03-01T16:38:53;26.83;;;11.30;;
40993;SDS011;26722;43.212;27.932;2023-03-01T16:41:21;22.85;;;11.93;;
40993;SDS011;26722;43.212;27.932;2023-03-01T16:43:48;20.85;;;11.57;;
40993;SDS011;26722;43.212;27.932;2023-03-01T16:46:16;23.88;;;10.88;;